Flight Track Log - Related Links

Times and Time Zones

All times are in EDT time to prevent confusion due to time zone crossing. See the N136JP flight status page for this flight to view local times or setup timezone preferences in your user account.

Time Position Orientation Groundspeed Altitude Reporting Facility
EDT Latitude Longitude Course Direction KTS MPH feet Rate Location/Type
Fri 11:09:14 AM 40.7833 -73.4167 15° North 192 221 1,300  Level New York TRACON
Fri 11:10:45 AM 40.8606 -73.3894 26° Northeast 197 227 6,100 3,497 Climbing Boston Center
Fri 11:11:45 AM 40.9150 -73.3547 20° North 209 241 10,100 3,050 Climbing Boston Center
Fri 11:12:45 AM 40.9819 -73.3225 21° North 230 265 12,200 1,350 Climbing Boston Center
Fri 11:13:45 AM 41.0697 -73.2769 43° Northeast 283 326 12,800 400 Climbing Boston Center
Fri 11:14:45 AM 41.1328 -73.1981 48° Northeast 306 352 13,000 100 Climbing Boston Center
Fri 11:15:45 AM 41.1917 -73.1103 42° Northeast 306 352 13,000  Level Boston Center
Fri 11:16:45 AM 41.2547 -73.0336 43° Northeast 306 352 13,000  Level Boston Center
Fri 11:17:45 AM 41.3197 -72.9542 42° Northeast 313 360 13,000 50 Level Boston Center
Fri 11:18:45 AM 41.3908 -72.8689 43° Northeast 326 375 13,100  Climbing Boston Center
Fri 11:19:45 AM 41.4600 -72.7836 44° Northeast 332 382 13,000  Descending Boston Center
Fri 11:20:45 AM 41.5289 -72.6953 43° Northeast 338 389 13,100 -50 Climbing Boston Center
Fri 11:21:45 AM 41.5978 -72.6094 45° Northeast 338 389 12,900 -550 Descending Boston Center
Fri 11:22:45 AM 41.6647 -72.5206 39° Northeast 338 389 12,000 -800 Descending Boston Center
Fri 11:23:45 AM 41.7356 -72.4428 38° Northeast 332 382 11,300 -500 Descending Boston Center
Fri 11:24:45 AM 41.8064 -72.3678 40° Northeast 320 368 11,000 -150 Descending Boston Center
Fri 11:25:45 AM 41.8689 -72.2981 36° Northeast 320 368 11,000  Level Boston Center
Fri 11:26:15 AM 41.9083 -72.2589 42° Northeast 324 373 11,000  Level Boston Center
Fri 11:26:45 AM 41.9458 -72.2139 42° Northeast 320 368 11,000  Level Boston Center
Fri 11:27:16 AM 41.9833 -72.1692 41° Northeast 325 374 11,000 -1,239 Level Boston Center
Fri 11:28:17 AM 42.0414 -72.1019 40° Northeast 274 315 9,100 -2,134 Descending Boston Center
Fri 11:29:45 AM 42.1161 -72.0175 39° Northeast 261 300 5,700 -1,967 Descending Boston Center
Fri 11:30:19 AM 42.1494 -71.9808 40° Northeast 235 270 5,100 -447 Descending Boston Center
Fri 11:31:19 AM 42.1992 -71.9244 40° Northeast 236 272 5,000 -41 Descending Boston Center
Fri 11:32:45 AM 42.2778 -71.8339 43° Northeast 242 278 5,000  Level Boston Center
Fri 11:33:45 AM 42.3275 -71.7717 42° Northeast 242 278 5,000  Level Boston Center
Fri 11:34:45 AM 42.3792 -71.7094 37° Northeast 247 284 5,000 -400 Level Boston Center
Fri 11:35:45 AM 42.4186 -71.6694 37° Northeast 213 245 4,200 -500 Descending Boston Center
Fri 11:36:45 AM 42.4600 -71.6267 37° Northeast 175 201 4,000 -100 Descending Boston Center
Fri 11:37:45 AM 42.4911 -71.5953 80° East 157 181 4,000 -300 Level Boston Center
Fri 11:38:45 AM 42.4989 -71.5361 102° East 144 166 3,400 -600 Descending Boston Center
Fri 11:39:45 AM 42.4900 -71.4800 100° East 154 177 2,800 -700 Descending Boston Center
Fri 11:40:45 AM 42.4833 -71.4267 94° East 147 169 2,000 -700 Descending Boston Center
Fri 11:41:45 AM 42.4808 -71.3817 97° East 137 158 1,400 -700 Descending Boston Center
Fri 11:42:45 AM 42.4761 -71.3283 97° East 132 152 600 -500 Descending Boston Center
Fri 11:43:45 AM 42.4717 -71.2803 97° East 127 146 400 -200 Descending Boston Center

Login

Don't have an account? Register now (free) for customized features, flight alerts, and more!